Time;durP1;ratioP1;P1;durP2;ratioP2;P2;SDS_P1;SDS_P2;PMS_P1;PMS_P2;Temp;Humidity;BMP_temperature;BMP_pressure;BME280_temperature;BME280_humidity;BME280_pressure;Samples;Min_cycle;Max_cycle;Signal;HPM_P1;HPM_P2
2022/11/23 00:00:31;;;;;;;20.95;8.60;;;;;;;;;;5062895;28;20074;-78
2022/11/23 00:02:57;;;;;;;22.67;9.18;;;;;;;;;;5062492;28;20379;-78
2022/11/23 00:05:24;;;;;;;25.20;9.57;;;;;;;;;;5063883;28;20024;-79
2022/11/23 00:07:50;;;;;;;22.45;9.80;;;;;;;;;;5064965;28;20570;-78
2022/11/23 00:10:16;;;;;;;23.17;9.88;;;;;;;;;;5065485;28;20116;-78
2022/11/23 00:12:42;;;;;;;28.25;8.95;;;;;;;;;;5057297;28;20043;-78
2022/11/23 00:15:08;;;;;;;30.45;9.02;;;;;;;;;;5065786;28;20044;-78
2022/11/23 00:17:34;;;;;;;19.92;8.18;;;;;;;;;;5065792;28;20883;-78
2022/11/23 00:20:00;;;;;;;23.85;8.98;;;;;;;;;;5058732;28;20025;-78
2022/11/23 00:22:26;;;;;;;28.67;10.00;;;;;;;;;;5063086;28;20124;-77
2022/11/23 00:24:52;;;;;;;26.73;9.13;;;;;;;;;;5066178;28;20111;-77
2022/11/23 00:27:18;;;;;;;24.88;8.90;;;;;;;;;;5066016;28;20037;-78
2022/11/23 00:29:44;;;;;;;25.08;9.13;;;;;;;;;;5064677;28;20047;-77
2022/11/23 00:32:10;;;;;;;26.38;9.50;;;;;;;;;;5058999;28;20510;-77
2022/11/23 00:34:35;;;;;;;27.70;8.77;;;;;;;;;;5063309;28;20123;-78
2022/11/23 00:37:01;;;;;;;26.00;8.80;;;;;;;;;;5065517;28;20016;-78
2022/11/23 00:39:27;;;;;;;27.90;9.77;;;;;;;;;;5066760;28;20021;-78
2022/11/23 00:41:53;;;;;;;31.33;10.25;;;;;;;;;;5062379;28;20115;-78
2022/11/23 00:44:19;;;;;;;24.02;8.20;;;;;;;;;;5065441;28;20450;-77
2022/11/23 00:46:45;;;;;;;19.30;9.20;;;;;;;;;;5060758;28;20043;-78
2022/11/23 00:49:11;;;;;;;22.73;9.57;;;;;;;;;;5063334;28;20098;-77
2022/11/23 00:51:37;;;;;;;22.50;9.05;;;;;;;;;;5062792;28;20036;-78
2022/11/23 00:54:04;;;;;;;31.05;10.55;;;;;;;;;;5059262;28;20387;-78
2022/11/23 00:56:30;;;;;;;29.65;9.82;;;;;;;;;;5066883;28;20036;-78
2022/11/23 00:58:57;;;;;;;29.92;9.48;;;;;;;;;;5065313;28;20463;-78
2022/11/23 01:01:24;;;;;;;22.33;9.05;;;;;;;;;;5061608;28;20056;-78
2022/11/23 01:03:51;;;;;;;28.33;9.73;;;;;;;;;;5056206;28;20025;-78
2022/11/23 01:06:27;;;;;;;21.92;8.20;;;;;;;;;;5057926;28;20082;-78
2022/11/23 01:08:58;;;;;;;23.60;8.75;;;;;;;;;;5059636;28;20084;-78
2022/11/23 01:11:25;;;;;;;23.88;9.95;;;;;;;;;;5066920;28;20025;-78
2022/11/23 01:13:51;;;;;;;30.63;10.23;;;;;;;;;;5062457;28;20375;-78
2022/11/23 01:16:20;;;;;;;24.00;9.52;;;;;;;;;;5066746;28;20455;-78
2022/11/23 01:18:46;;;;;;;23.95;9.98;;;;;;;;;;5061090;28;20085;-78
2022/11/23 01:21:12;;;;;;;27.67;9.23;;;;;;;;;;5067023;28;20040;-78
2022/11/23 01:23:38;;;;;;;32.50;9.82;;;;;;;;;;5064599;28;20482;-78
2022/11/23 01:26:08;;;;;;;23.02;9.35;;;;;;;;;;5066105;28;20260;-78
2022/11/23 01:28:34;;;;;;;30.02;10.32;;;;;;;;;;5064284;28;20033;-78
2022/11/23 01:31:08;;;;;;;28.65;9.93;;;;;;;;;;5063874;28;20028;-78
2022/11/23 01:33:34;;;;;;;27.77;11.45;;;;;;;;;;5063215;28;20078;-78
2022/11/23 01:36:00;;;;;;;34.25;11.18;;;;;;;;;;5065025;28;20024;-78
2022/11/23 01:38:26;;;;;;;24.83;9.48;;;;;;;;;;5059447;28;20025;-78
2022/11/23 01:40:52;;;;;;;22.25;9.93;;;;;;;;;;5064737;28;20028;-78
2022/11/23 01:43:18;;;;;;;27.33;9.05;;;;;;;;;;5066681;28;20028;-78
2022/11/23 01:45:55;;;;;;;34.58;11.02;;;;;;;;;;5056598;28;20052;-78
2022/11/23 01:48:23;;;;;;;25.42;9.57;;;;;;;;;;5062492;28;20051;-78
2022/11/23 01:50:51;;;;;;;24.90;9.43;;;;;;;;;;5060507;28;20047;-78
2022/11/23 01:53:17;;;;;;;25.17;9.45;;;;;;;;;;5067218;28;20067;-78
2022/11/23 01:55:44;;;;;;;25.77;9.52;;;;;;;;;;5064914;28;20036;-78
2022/11/23 01:58:12;;;;;;;23.13;9.13;;;;;;;;;;5063742;28;20055;-78
2022/11/23 02:00:38;;;;;;;32.20;9.55;;;;;;;;;;5060879;28;20027;-78
2022/11/23 02:03:05;;;;;;;23.83;8.85;;;;;;;;;;5065235;28;20364;-78
2022/11/23 02:05:33;;;;;;;27.98;9.32;;;;;;;;;;5061961;28;20459;-78
2022/11/23 02:08:00;;;;;;;32.28;11.20;;;;;;;;;;5054841;28;20391;-78
2022/11/23 02:10:26;;;;;;;26.90;9.52;;;;;;;;;;5055357;28;20036;-78
2022/11/23 02:12:52;;;;;;;27.27;9.85;;;;;;;;;;5065356;28;20041;-78
2022/11/23 02:15:18;;;;;;;27.42;9.88;;;;;;;;;;5064576;28;20471;-78
2022/11/23 02:17:45;;;;;;;31.17;10.18;;;;;;;;;;5067315;28;20043;-78
2022/11/23 02:20:12;;;;;;;29.52;10.07;;;;;;;;;;5057072;28;20045;-78
2022/11/23 02:22:43;;;;;;;25.27;9.18;;;;;;;;;;5065631;28;20446;-78
2022/11/23 02:25:14;;;;;;;24.52;9.32;;;;;;;;;;5057546;28;20037;-78
2022/11/23 02:27:40;;;;;;;22.90;9.80;;;;;;;;;;5061711;28;20115;-78
2022/11/23 02:30:06;;;;;;;26.55;9.63;;;;;;;;;;5061781;28;20033;-78
2022/11/23 02:32:33;;;;;;;26.02;9.05;;;;;;;;;;5061251;28;20032;-78
2022/11/23 02:34:59;;;;;;;24.13;8.45;;;;;;;;;;5066619;28;20032;-78
2022/11/23 02:37:25;;;;;;;25.05;9.30;;;;;;;;;;5065830;28;20039;-78
2022/11/23 02:39:51;;;;;;;23.55;9.05;;;;;;;;;;5069352;28;20097;-78
2022/11/23 02:42:17;;;;;;;25.60;9.25;;;;;;;;;;5070328;28;20028;-78
2022/11/23 02:44:55;;;;;;;19.38;8.43;;;;;;;;;;5067101;28;20542;-78
2022/11/23 02:47:21;;;;;;;24.73;9.70;;;;;;;;;;5070329;28;20029;-78
2022/11/23 02:49:48;;;;;;;28.05;9.40;;;;;;;;;;5068912;28;20048;-78
2022/11/23 02:52:14;;;;;;;19.65;7.85;;;;;;;;;;5070094;28;20039;-78
2022/11/23 02:54:40;;;;;;;23.05;9.35;;;;;;;;;;5067312;28;20104;-78
2022/11/23 02:57:06;;;;;;;24.95;9.85;;;;;;;;;;5066181;28;20566;-77
2022/11/23 02:59:32;;;;;;;20.52;8.00;;;;;;;;;;5068701;28;20020;-78
2022/11/23 03:01:59;;;;;;;24.60;9.40;;;;;;;;;;5069639;28;20382;-78
2022/11/23 03:04:25;;;;;;;27.67;8.85;;;;;;;;;;5067471;28;20028;-78
2022/11/23 03:06:50;;;;;;;20.25;9.02;;;;;;;;;;5059511;28;20078;-78
2022/11/23 03:09:16;;;;;;;23.67;9.07;;;;;;;;;;5067550;28;20035;-78
2022/11/23 03:11:42;;;;;;;24.27;9.32;;;;;;;;;;5062113;28;20139;-78
2022/11/23 03:14:08;;;;;;;24.45;8.57;;;;;;;;;;5064883;28;20016;-78
2022/11/23 03:16:34;;;;;;;24.63;8.73;;;;;;;;;;5068952;28;20490;-78
2022/11/23 03:19:00;;;;;;;22.05;8.70;;;;;;;;;;5063935;28;20098;-78
2022/11/23 03:21:26;;;;;;;21.08;8.40;;;;;;;;;;5060732;28;20032;-78
2022/11/23 03:23:52;;;;;;;24.45;8.32;;;;;;;;;;5067037;28;20029;-78
2022/11/23 03:26:18;;;;;;;26.42;8.57;;;;;;;;;;5063365;28;20028;-78
2022/11/23 03:28:44;;;;;;;23.10;8.98;;;;;;;;;;5065589;28;20024;-78
2022/11/23 03:31:10;;;;;;;24.45;8.60;;;;;;;;;;5066854;28;20033;-78
2022/11/23 03:33:37;;;;;;;22.23;7.65;;;;;;;;;;5065523;28;20047;-78
2022/11/23 03:36:03;;;;;;;21.48;8.77;;;;;;;;;;5059412;28;20384;-78
2022/11/23 03:38:29;;;;;;;26.70;8.15;;;;;;;;;;5060914;28;20029;-78
2022/11/23 03:40:55;;;;;;;23.17;8.95;;;;;;;;;;5064588;28;20025;-78
2022/11/23 03:43:21;;;;;;;18.77;8.55;;;;;;;;;;5065010;28;20028;-78
2022/11/23 03:45:47;;;;;;;19.52;7.60;;;;;;;;;;5060132;28;20020;-77
2022/11/23 03:48:13;;;;;;;24.83;8.80;;;;;;;;;;5064650;28;20419;-79
2022/11/23 03:50:39;;;;;;;22.13;8.13;;;;;;;;;;5065760;28;20028;-78
2022/11/23 03:53:05;;;;;;;20.42;7.55;;;;;;;;;;5068121;28;20031;-77
2022/11/23 03:55:31;;;;;;;23.00;8.98;;;;;;;;;;5063690;28;20047;-78
2022/11/23 03:57:58;;;;;;;16.90;8.00;;;;;;;;;;5056520;28;20066;-77
2022/11/23 04:00:25;;;;;;;23.63;8.13;;;;;;;;;;5061175;28;20025;-77
2022/11/23 04:02:51;;;;;;;27.58;8.65;;;;;;;;;;5057608;28;20032;-77
2022/11/23 04:05:16;;;;;;;25.92;9.32;;;;;;;;;;5060416;28;20093;-77
2022/11/23 04:07:43;;;;;;;20.63;8.13;;;;;;;;;;5064553;28;20592;-78
2022/11/23 04:10:09;;;;;;;19.73;8.23;;;;;;;;;;5067632;28;20485;-77
2022/11/23 04:12:35;;;;;;;22.00;8.48;;;;;;;;;;5067903;28;20592;-78
2022/11/23 04:15:01;;;;;;;23.42;8.25;;;;;;;;;;5059391;28;20057;-78
2022/11/23 04:17:27;;;;;;;23.98;8.77;;;;;;;;;;5066774;28;20013;-78
2022/11/23 04:19:53;;;;;;;25.90;9.65;;;;;;;;;;5060372;28;20467;-77
2022/11/23 04:22:19;;;;;;;21.75;7.78;;;;;;;;;;5061632;28;20055;-77
2022/11/23 04:24:44;;;;;;;22.05;9.55;;;;;;;;;;5065404;28;20047;-80
2022/11/23 04:27:10;;;;;;;26.23;8.27;;;;;;;;;;5066199;28;20032;-78
2022/11/23 04:29:36;;;;;;;25.50;8.73;;;;;;;;;;5061140;28;20028;-77
2022/11/23 04:32:02;;;;;;;22.17;8.75;;;;;;;;;;5067515;28;20020;-78
2022/11/23 04:34:28;;;;;;;25.33;8.88;;;;;;;;;;5061541;28;20028;-78
2022/11/23 04:36:54;;;;;;;22.77;8.63;;;;;;;;;;5051900;28;20039;-78
2022/11/23 04:39:20;;;;;;;18.35;8.07;;;;;;;;;;5059205;28;20020;-77
2022/11/23 04:41:46;;;;;;;27.17;8.52;;;;;;;;;;5048650;28;20476;-78
2022/11/23 04:44:12;;;;;;;15.00;7.53;;;;;;;;;;5061325;28;20063;-79
2022/11/23 04:46:38;;;;;;;26.40;8.05;;;;;;;;;;5061446;28;20379;-79
2022/11/23 04:49:04;;;;;;;23.25;8.35;;;;;;;;;;5065524;28;20037;-79
2022/11/23 04:51:30;;;;;;;24.02;8.27;;;;;;;;;;5067773;28;20039;-78
2022/11/23 04:53:56;;;;;;;19.55;8.35;;;;;;;;;;5057740;28;20036;-79
2022/11/23 04:56:22;;;;;;;18.20;7.78;;;;;;;;;;5058417;28;20166;-79
2022/11/23 04:58:48;;;;;;;22.83;7.72;;;;;;;;;;5063480;28;20849;-79
2022/11/23 05:01:14;;;;;;;20.77;7.80;;;;;;;;;;5065979;28;20085;-79
2022/11/23 05:03:40;;;;;;;23.40;8.23;;;;;;;;;;5063975;28;20097;-79
2022/11/23 05:06:06;;;;;;;23.75;8.63;;;;;;;;;;5067807;28;20545;-79
2022/11/23 05:08:32;;;;;;;20.45;8.40;;;;;;;;;;5060093;28;20036;-79
2022/11/23 05:10:58;;;;;;;19.55;8.35;;;;;;;;;;5067330;28;20033;-79
2022/11/23 05:13:24;;;;;;;25.23;8.43;;;;;;;;;;5066076;28;20056;-79
2022/11/23 05:15:50;;;;;;;25.17;9.35;;;;;;;;;;5067345;28;20059;-79
2022/11/23 05:18:16;;;;;;;20.17;7.25;;;;;;;;;;5064137;28;20028;-79
2022/11/23 05:20:42;;;;;;;22.83;8.27;;;;;;;;;;5065872;28;20017;-78
2022/11/23 05:23:08;;;;;;;18.70;7.80;;;;;;;;;;5066537;28;20020;-78
2022/11/23 05:25:34;;;;;;;21.23;8.43;;;;;;;;;;5066433;28;20515;-78
2022/11/23 05:28:00;;;;;;;20.13;9.18;;;;;;;;;;5062341;28;20028;-78
2022/11/23 05:30:25;;;;;;;21.27;8.65;;;;;;;;;;5057917;28;20084;-79
2022/11/23 05:32:51;;;;;;;19.88;8.00;;;;;;;;;;5064682;28;20252;-78
2022/11/23 05:35:17;;;;;;;22.25;8.80;;;;;;;;;;5064698;28;20044;-79
2022/11/23 05:37:43;;;;;;;22.20;7.80;;;;;;;;;;5063417;28;20028;-78
2022/11/23 05:40:10;;;;;;;21.33;7.55;;;;;;;;;;5063441;28;20510;-78
2022/11/23 05:42:36;;;;;;;21.00;7.88;;;;;;;;;;5060215;28;20035;-76
2022/11/23 05:45:02;;;;;;;18.15;7.05;;;;;;;;;;5065905;28;20029;-78
2022/11/23 05:47:28;;;;;;;25.23;7.97;;;;;;;;;;5050905;28;20074;-78
2022/11/23 05:49:54;;;;;;;23.08;8.60;;;;;;;;;;5065316;28;20487;-82
2022/11/23 05:52:19;;;;;;;24.02;8.77;;;;;;;;;;5055320;28;20124;-77
2022/11/23 05:54:45;;;;;;;18.55;7.93;;;;;;;;;;5060553;28;20044;-77
2022/11/23 05:57:11;;;;;;;18.23;8.77;;;;;;;;;;5063952;28;20509;-77
2022/11/23 05:59:37;;;;;;;19.27;7.65;;;;;;;;;;5065999;28;20419;-78
2022/11/23 06:02:04;;;;;;;22.60;8.85;;;;;;;;;;5065010;28;20031;-78
2022/11/23 06:04:30;;;;;;;21.23;7.95;;;;;;;;;;5061171;28;20436;-79
2022/11/23 06:06:59;;;;;;;16.17;6.80;;;;;;;;;;5067196;28;20040;-86
2022/11/23 06:09:25;;;;;;;20.95;7.82;;;;;;;;;;5071043;28;20167;-86
2022/11/23 06:11:51;;;;;;;22.85;9.15;;;;;;;;;;5068545;28;20089;-85
2022/11/23 06:14:17;;;;;;;19.77;7.60;;;;;;;;;;5071151;28;20056;-81
2022/11/23 06:16:43;;;;;;;16.38;7.45;;;;;;;;;;5069227;28;20025;-81
2022/11/23 06:19:09;;;;;;;26.50;7.60;;;;;;;;;;5063413;28;20050;-81
2022/11/23 06:21:35;;;;;;;18.15;7.55;;;;;;;;;;5069376;28;20024;-81
2022/11/23 06:24:01;;;;;;;20.13;6.70;;;;;;;;;;5071210;28;20082;-80
2022/11/23 06:26:27;;;;;;;14.93;7.53;;;;;;;;;;5070667;28;20031;-80
2022/11/23 06:28:53;;;;;;;18.67;7.78;;;;;;;;;;5070881;28;20031;-81
2022/11/23 06:31:19;;;;;;;17.77;6.63;;;;;;;;;;5069885;28;20029;-80
2022/11/23 06:33:45;;;;;;;20.75;7.78;;;;;;;;;;5069956;28;20454;-80
2022/11/23 06:36:11;;;;;;;19.50;7.40;;;;;;;;;;5071086;28;20024;-81
2022/11/23 06:38:37;;;;;;;18.70;7.25;;;;;;;;;;5070580;28;20020;-81
2022/11/23 06:41:04;;;;;;;22.25;7.22;;;;;;;;;;5071028;28;20029;-81
2022/11/23 06:43:30;;;;;;;18.98;6.38;;;;;;;;;;5067799;28;20399;-81
2022/11/23 06:45:56;;;;;;;19.48;7.32;;;;;;;;;;5061570;28;20537;-81
2022/11/23 06:48:22;;;;;;;22.27;8.68;;;;;;;;;;5070760;28;20040;-80
2022/11/23 06:50:48;;;;;;;18.27;7.47;;;;;;;;;;5069091;28;20025;-80
2022/11/23 06:53:14;;;;;;;19.98;7.90;;;;;;;;;;5070522;28;20053;-79
2022/11/23 06:55:41;;;;;;;22.90;7.28;;;;;;;;;;5072700;28;20383;-79
2022/11/23 06:58:07;;;;;;;17.00;7.03;;;;;;;;;;5071620;28;20021;-80
2022/11/23 07:00:33;;;;;;;19.13;7.80;;;;;;;;;;5072224;28;20025;-79
2022/11/23 07:02:59;;;;;;;18.75;7.45;;;;;;;;;;5068603;28;20662;-80
2022/11/23 07:05:26;;;;;;;20.25;7.35;;;;;;;;;;5067242;28;20028;-80
2022/11/23 07:07:52;;;;;;;19.45;8.07;;;;;;;;;;5067857;28;20040;-80
2022/11/23 07:10:18;;;;;;;24.73;9.43;;;;;;;;;;5069904;28;20028;-79
2022/11/23 07:12:44;;;;;;;19.20;7.85;;;;;;;;;;5050101;28;20361;-80
2022/11/23 07:15:10;;;;;;;17.13;7.25;;;;;;;;;;5050422;28;20468;-80
2022/11/23 07:17:40;;;;;;;27.48;8.73;;;;;;;;;;5064122;28;20028;-80
2022/11/23 07:20:07;;;;;;;18.63;8.63;;;;;;;;;;5070181;28;20051;-80
2022/11/23 07:22:33;;;;;;;18.83;7.55;;;;;;;;;;5070301;28;20471;-80
2022/11/23 07:24:59;;;;;;;18.63;7.30;;;;;;;;;;5066025;28;20037;-79
2022/11/23 07:27:25;;;;;;;21.10;8.18;;;;;;;;;;5063099;28;20040;-80
2022/11/23 07:29:51;;;;;;;19.20;7.43;;;;;;;;;;5069380;28;20103;-80
2022/11/23 07:32:17;;;;;;;17.98;7.88;;;;;;;;;;5069876;28;20222;-80
2022/11/23 07:34:42;;;;;;;22.25;8.20;;;;;;;;;;5069035;28;20050;-80
2022/11/23 07:37:08;;;;;;;21.02;8.98;;;;;;;;;;5065324;28;20032;-81
2022/11/23 07:39:34;;;;;;;21.02;7.63;;;;;;;;;;5063603;28;20112;-80
2022/11/23 07:42:00;;;;;;;22.92;7.85;;;;;;;;;;5057625;28;20025;-80
2022/11/23 07:44:26;;;;;;;20.95;8.88;;;;;;;;;;5057516;28;20044;-80
2022/11/23 07:46:52;;;;;;;21.48;8.73;;;;;;;;;;5058418;28;20132;-78
2022/11/23 07:49:18;;;;;;;19.85;8.40;;;;;;;;;;5066939;28;20110;-79
2022/11/23 07:51:44;;;;;;;23.70;8.90;;;;;;;;;;5065919;28;20033;-79
2022/11/23 07:54:10;;;;;;;23.92;8.55;;;;;;;;;;5068518;28;20364;-79
2022/11/23 07:56:36;;;;;;;26.67;10.05;;;;;;;;;;5067312;28;20032;-79
2022/11/23 07:59:02;;;;;;;21.73;9.32;;;;;;;;;;5065293;28;20036;-79
2022/11/23 08:01:30;;;;;;;26.17;9.52;;;;;;;;;;5067907;28;20399;-79
2022/11/23 08:03:56;;;;;;;22.05;8.57;;;;;;;;;;5066867;28;20497;-79
2022/11/23 08:06:22;;;;;;;19.05;8.63;;;;;;;;;;5063852;28;20021;-79
2022/11/23 08:08:48;;;;;;;20.10;8.60;;;;;;;;;;5068835;28;20037;-79
2022/11/23 08:11:15;;;;;;;22.25;8.00;;;;;;;;;;5067328;28;20032;-78
2022/11/23 08:13:41;;;;;;;19.52;9.18;;;;;;;;;;5067398;28;20028;-78
2022/11/23 08:16:07;;;;;;;22.60;8.70;;;;;;;;;;5060647;28;20033;-78
2022/11/23 08:18:33;;;;;;;20.35;8.35;;;;;;;;;;5063989;28;20025;-79
2022/11/23 08:21:00;;;;;;;18.48;8.20;;;;;;;;;;5062100;28;20027;-77
2022/11/23 08:23:26;;;;;;;18.30;7.43;;;;;;;;;;5061963;28;20017;-73
2022/11/23 08:25:51;;;;;;;21.95;7.68;;;;;;;;;;5061540;28;20086;-81
2022/11/23 08:28:17;;;;;;;18.35;8.18;;;;;;;;;;5066658;28;20430;-84
2022/11/23 08:30:44;;;;;;;21.42;8.65;;;;;;;;;;5065569;28;20505;-82
2022/11/23 08:33:10;;;;;;;22.40;8.70;;;;;;;;;;5063013;28;20028;-79
2022/11/23 08:35:36;;;;;;;17.52;7.82;;;;;;;;;;5059400;28;20411;-82
2022/11/23 08:38:06;;;;;;;20.02;8.80;;;;;;;;;;5052591;28;20055;-82
2022/11/23 08:40:32;;;;;;;20.38;7.53;;;;;;;;;;5062546;28;20055;-81
2022/11/23 08:42:58;;;;;;;22.13;9.07;;;;;;;;;;5064111;28;20629;-81
2022/11/23 08:45:24;;;;;;;20.50;8.20;;;;;;;;;;5062644;28;20064;-80
2022/11/23 08:47:54;;;;;;;25.23;8.80;;;;;;;;;;5066405;28;20448;-87
2022/11/23 08:50:21;;;;;;;22.30;7.65;;;;;;;;;;5067594;28;20062;-79
2022/11/23 08:52:53;;;;;;;15.90;7.75;;;;;;;;;;5056834;28;20411;-87
2022/11/23 08:55:19;;;;;;;;;;;;;;;;;;5055469;28;20070;-79
2022/11/23 08:57:45;;;;;;;22.73;7.82;;;;;;;;;;5055981;28;20267;-78
2022/11/23 09:00:11;;;;;;;26.00;8.73;;;;;;;;;;5052067;28;20665;-78
2022/11/23 09:02:37;;;;;;;18.33;7.13;;;;;;;;;;5051015;28;20056;-78
2022/11/23 09:05:05;;;;;;;21.33;7.22;;;;;;;;;;5060004;28;20420;-78
2022/11/23 09:07:34;;;;;;;21.63;8.38;;;;;;;;;;5065984;28;20094;-78
2022/11/23 09:10:00;;;;;;;19.70;7.07;;;;;;;;;;5056790;28;20035;-78
2022/11/23 09:12:26;;;;;;;16.15;7.55;;;;;;;;;;5064287;28;20201;-78
2022/11/23 09:14:52;;;;;;;21.85;8.57;;;;;;;;;;5059625;28;20017;-78
2022/11/23 09:17:18;;;;;;;19.73;7.72;;;;;;;;;;5063482;28;20029;-79
2022/11/23 09:19:44;;;;;;;22.08;7.82;;;;;;;;;;5056709;28;20025;-79
2022/11/23 09:22:10;;;;;;;16.58;7.85;;;;;;;;;;5060002;28;20570;-80
2022/11/23 09:24:36;;;;;;;17.67;7.28;;;;;;;;;;5057974;28;20024;-79
2022/11/23 09:27:02;;;;;;;17.92;8.63;;;;;;;;;;5061108;28;20445;-80
2022/11/23 09:29:28;;;;;;;23.02;7.35;;;;;;;;;;5063665;28;20037;-79
2022/11/23 09:31:54;;;;;;;21.20;8.48;;;;;;;;;;5067466;28;20024;-79
2022/11/23 09:34:20;;;;;;;21.23;8.60;;;;;;;;;;5058238;28;20066;-78
2022/11/23 09:36:46;;;;;;;17.13;8.23;;;;;;;;;;5064257;28;20031;-79
2022/11/23 09:39:12;;;;;;;16.27;7.18;;;;;;;;;;5064321;28;20402;-78
2022/11/23 09:42:03;;;;;;;15.48;7.32;;;;;;;;;;5056459;28;20032;-79
2022/11/23 09:44:51;;;;;;;23.08;8.55;;;;;;;;;;5058846;28;20025;-79
2022/11/23 09:47:26;;;;;;;17.08;7.80;;;;;;;;;;5058234;28;20070;-79
2022/11/23 09:49:59;;;;;;;20.17;7.78;;;;;;;;;;5060899;28;20067;-79
2022/11/23 09:52:25;;;;;;;17.23;7.47;;;;;;;;;;5059079;28;20109;-79
2022/11/23 09:54:53;;;;;;;19.27;7.53;;;;;;;;;;5061588;28;20081;-77
2022/11/23 09:57:21;;;;;;;18.95;7.97;;;;;;;;;;5066263;28;20032;-77
2022/11/23 09:59:50;;;;;;;17.52;7.28;;;;;;;;;;5065034;28;20020;-77
2022/11/23 10:02:22;;;;;;;17.67;8.00;;;;;;;;;;5064188;28;20038;-76
2022/11/23 10:04:49;;;;;;;18.55;9.15;;;;;;;;;;5066291;28;20032;-76
2022/11/23 10:07:24;;;;;;;20.88;8.02;;;;;;;;;;5068312;28;20025;-76
2022/11/23 10:09:57;;;;;;;15.23;7.82;;;;;;;;;;5062853;28;20036;-77
2022/11/23 10:12:22;;;;;;;18.25;7.97;;;;;;;;;;5063760;28;20028;-77
2022/11/23 10:14:58;;;;;;;17.75;7.45;;;;;;;;;;5062649;28;20025;-77
2022/11/23 10:17:30;;;;;;;16.65;7.65;;;;;;;;;;5063372;28;20033;-76
2022/11/23 10:20:07;;;;;;;20.48;9.18;;;;;;;;;;5062738;28;20029;-76
2022/11/23 10:22:52;;;;;;;15.43;7.60;;;;;;;;;;5067570;28;20021;-76
2022/11/23 10:25:21;;;;;;;16.45;7.82;;;;;;;;;;5063529;28;20402;-76
2022/11/23 10:27:49;;;;;;;21.80;8.30;;;;;;;;;;5060789;28;20142;-77
2022/11/23 10:30:16;;;;;;;17.33;8.10;;;;;;;;;;5061246;28;20037;-76
2022/11/23 10:32:46;;;;;;;18.75;8.57;;;;;;;;;;5057122;28;20415;-77
2022/11/23 10:35:13;;;;;;;17.90;8.18;;;;;;;;;;5061370;28;20037;-83
2022/11/23 10:37:39;;;;;;;20.17;7.95;;;;;;;;;;5053776;28;20024;-84
2022/11/23 10:40:25;;;;;;;20.67;8.05;;;;;;;;;;5055008;28;20776;-84
2022/11/23 10:42:55;;;;;;;16.60;7.50;;;;;;;;;;5065177;28;20082;-84
2022/11/23 10:45:26;;;;;;;19.55;8.18;;;;;;;;;;5069228;28;20032;-84
2022/11/23 10:47:54;;;;;;;19.77;7.45;;;;;;;;;;5067964;28;20044;-84
2022/11/23 10:50:36;;;;;;;17.70;7.22;;;;;;;;;;5060093;28;20111;-84
2022/11/23 10:53:05;;;;;;;14.45;6.78;;;;;;;;;;5062910;28;20037;-84
2022/11/23 10:55:32;;;;;;;18.42;7.55;;;;;;;;;;5068223;28;20029;-84
2022/11/23 10:57:58;;;;;;;17.48;7.85;;;;;;;;;;5068200;28;20024;-84
2022/11/23 11:00:26;;;;;;;16.02;7.07;;;;;;;;;;5057393;28;20025;-85
2022/11/23 11:02:53;;;;;;;17.83;7.53;;;;;;;;;;5061968;28;20033;-85
2022/11/23 11:05:28;;;;;;;19.02;7.65;;;;;;;;;;5067610;28;20025;-85
2022/11/23 11:07:55;;;;;;;16.25;6.85;;;;;;;;;;5056915;28;20433;-84
2022/11/23 11:10:32;;;;;;;16.10;7.20;;;;;;;;;;5061237;28;20057;-85
2022/11/23 11:12:58;;;;;;;16.27;6.57;;;;;;;;;;5062002;28;20070;-84
2022/11/23 11:15:24;;;;;;;16.80;7.07;;;;;;;;;;5057565;28;20749;-84
2022/11/23 11:17:57;;;;;;;14.98;7.47;;;;;;;;;;5061358;28;20033;-85
2022/11/23 11:20:28;;;;;;;15.73;6.55;;;;;;;;;;5060405;28;20025;-84
2022/11/23 11:22:55;;;;;;;16.33;7.53;;;;;;;;;;5062662;28;20116;-78
2022/11/23 11:25:29;;;;;;;16.67;6.88;;;;;;;;;;5059271;28;20426;-87
2022/11/23 11:27:55;;;;;;;14.38;6.28;;;;;;;;;;5060442;28;20070;-88
2022/11/23 11:30:26;;;;;;;14.50;7.00;;;;;;;;;;5061484;28;20067;-87
2022/11/23 11:33:00;;;;;;;17.40;6.82;;;;;;;;;;5063588;28;20046;-88
2022/11/23 11:35:28;;;;;;;14.07;7.00;;;;;;;;;;5066172;28;20047;-87
2022/11/23 11:37:56;;;;;;;15.40;6.82;;;;;;;;;;5067122;28;20111;-77
2022/11/23 11:40:58;;;;;;;15.77;6.63;;;;;;;;;;5060888;28;20017;-77
2022/11/23 11:43:44;;;;;;;11.32;6.22;;;;;;;;;;5056040;28;20107;-77
2022/11/23 11:46:13;;;;;;;16.83;5.90;;;;;;;;;;5064167;28;20386;-77
2022/11/23 11:48:40;;;;;;;11.13;5.50;;;;;;;;;;5059469;28;20498;-77
2022/11/23 11:51:10;;;;;;;15.27;7.07;;;;;;;;;;5065833;28;20157;-77
2022/11/23 11:53:44;;;;;;;16.70;6.45;;;;;;;;;;5062501;28;20024;-77
2022/11/23 11:56:21;;;;;;;14.90;7.00;;;;;;;;;;5063790;28;20021;-77
2022/11/23 11:59:10;;;;;;;16.05;6.85;;;;;;;;;;5068904;28;20101;-77
2022/11/23 12:01:39;;;;;;;10.95;5.72;;;;;;;;;;5066885;28;20682;-77
2022/11/23 12:04:14;;;;;;;18.70;6.68;;;;;;;;;;5056930;28;20035;-77
2022/11/23 12:06:43;;;;;;;15.20;6.55;;;;;;;;;;5061680;28;20036;-77
2022/11/23 12:09:23;;;;;;;14.88;7.13;;;;;;;;;;5064001;28;20036;-77
2022/11/23 12:11:49;;;;;;;15.77;6.47;;;;;;;;;;5059588;28;20136;-77
2022/11/23 12:14:16;;;;;;;16.08;7.68;;;;;;;;;;5064519;28;20111;-77
2022/11/23 12:17:06;;;;;;;16.95;6.85;;;;;;;;;;5063364;28;20028;-77
2022/11/23 12:19:55;;;;;;;21.55;6.95;;;;;;;;;;5065559;28;20380;-77
2022/11/23 12:22:21;;;;;;;15.30;6.25;;;;;;;;;;5062726;28;20094;-78
2022/11/23 12:25:10;;;;;;;12.55;6.18;;;;;;;;;;5065947;28;20021;-77
2022/11/23 12:27:43;;;;;;;16.50;7.10;;;;;;;;;;5062987;28;20031;-78
2022/11/23 12:30:16;;;;;;;13.43;6.50;;;;;;;;;;5057136;28;20037;-77
2022/11/23 12:32:59;;;;;;;16.70;7.00;;;;;;;;;;5059865;28;20036;-77
2022/11/23 12:35:44;;;;;;;15.25;6.18;;;;;;;;;;5061481;28;20129;-81
2022/11/23 12:38:18;;;;;;;14.45;6.63;;;;;;;;;;5061674;28;20024;-86
2022/11/23 12:41:11;;;;;;;14.70;6.80;;;;;;;;;;5068240;28;20029;-83
2022/11/23 12:43:53;;;;;;;13.60;6.40;;;;;;;;;;5065118;28;20110;-84
2022/11/23 12:46:22;;;;;;;15.77;5.95;;;;;;;;;;5061408;28;20160;-76
2022/11/23 12:49:07;;;;;;;20.13;7.03;;;;;;;;;;5059247;28;20047;-77
2022/11/23 12:51:41;;;;;;;14.65;7.10;;;;;;;;;;5067201;28;20024;-85
2022/11/23 12:54:31;;;;;;;14.95;5.93;;;;;;;;;;5068066;28;20028;-81
2022/11/23 12:57:18;;;;;;;18.83;7.07;;;;;;;;;;5064841;28;20063;-88
2022/11/23 12:59:50;;;;;;;10.43;6.03;;;;;;;;;;5067065;28;20030;-80
2022/11/23 13:02:32;;;;;;;12.68;6.32;;;;;;;;;;5068468;28;20036;-83
2022/11/23 13:05:10;;;;;;;20.05;7.10;;;;;;;;;;5067222;28;20036;-78
2022/11/23 13:07:47;;;;;;;13.55;6.40;;;;;;;;;;5053281;28;20032;-81
2022/11/23 13:10:28;;;;;;;15.55;7.13;;;;;;;;;;5066876;28;20086;-85
2022/11/23 13:13:00;;;;;;;15.55;6.53;;;;;;;;;;5066614;28;20100;-85
2022/11/23 13:15:39;;;;;;;12.93;6.20;;;;;;;;;;5066511;28;20036;-77
2022/11/23 13:18:13;;;;;;;11.63;5.82;;;;;;;;;;5062828;28;20025;-76
2022/11/23 13:20:51;;;;;;;16.80;6.75;;;;;;;;;;5067616;28;20024;-80
2022/11/23 13:23:20;;;;;;;13.43;6.38;;;;;;;;;;5067643;28;20082;-85
2022/11/23 13:26:08;;;;;;;16.75;6.20;;;;;;;;;;5060550;28;20401;-81
2022/11/23 13:28:34;;;;;;;12.68;5.55;;;;;;;;;;5062413;28;20028;-81
2022/11/23 13:31:15;;;;;;;12.48;5.95;;;;;;;;;;5058916;28;20116;-81
2022/11/23 13:33:44;;;;;;;18.40;6.75;;;;;;;;;;5060503;28;20480;-86
2022/11/23 13:36:12;;;;;;;15.60;6.82;;;;;;;;;;5066119;28;20033;-83
2022/11/23 13:38:39;;;;;;;11.80;5.93;;;;;;;;;;5059293;28;20062;-86
2022/11/23 13:41:24;;;;;;;18.20;6.80;;;;;;;;;;5066650;28;20238;-90
2022/11/23 13:43:51;;;;;;;16.77;7.38;;;;;;;;;;5065619;28;20457;-84
2022/11/23 13:46:27;;;;;;;13.90;6.07;;;;;;;;;;5061093;28;20033;-80
2022/11/23 13:48:54;;;;;;;14.70;6.72;;;;;;;;;;5051430;28;20032;-85
2022/11/23 13:51:28;;;;;;;17.35;7.50;;;;;;;;;;5069775;28;20053;-87
2022/11/23 13:54:02;;;;;;;19.67;7.10;;;;;;;;;;5068344;28;20033;-85
2022/11/23 13:56:38;;;;;;;17.35;6.50;;;;;;;;;;5056896;28;20108;-84
2022/11/23 13:59:23;;;;;;;13.63;6.63;;;;;;;;;;5063909;28;20457;-87
2022/11/23 14:01:58;;;;;;;14.43;6.38;;;;;;;;;;5065555;28;20123;-81
2022/11/23 14:04:24;;;;;;;11.52;6.28;;;;;;;;;;5062709;28;20036;-85
2022/11/23 14:06:56;;;;;;;13.13;6.00;;;;;;;;;;5067090;28;20119;-86
2022/11/23 14:09:27;;;;;;;14.90;6.47;;;;;;;;;;5067506;28;20056;-85
2022/11/23 14:11:53;;;;;;;;;;;;;;;;;;5063885;28;20430;-85
2022/11/23 14:14:22;;;;;;;11.00;5.70;;;;;;;;;;5059741;28;19919;-85
2022/11/23 14:17:00;;;;;;;13.93;6.57;;;;;;;;;;5065433;28;20017;-85
2022/11/23 14:19:42;;;;;;;16.25;5.90;;;;;;;;;;5065097;28;20487;-85
2022/11/23 14:22:08;;;;;;;;;;;;;;;;;;5068224;28;20021;-85
2022/11/23 14:24:45;;;;;;;14.27;5.65;;;;;;;;;;5073596;28;19913;-85
2022/11/23 14:27:22;;;;;;;16.38;6.00;;;;;;;;;;5065772;28;20055;-85
2022/11/23 14:30:01;;;;;;;11.57;5.60;;;;;;;;;;5062604;28;20597;-85
2022/11/23 14:32:32;;;;;;;17.20;6.82;;;;;;;;;;5069652;28;20027;-84
2022/11/23 14:34:58;;;;;;;11.27;5.75;;;;;;;;;;5070823;28;20441;-84
2022/11/23 14:37:53;;;;;;;11.52;5.35;;;;;;;;;;5063147;28;20136;-85
2022/11/23 14:40:26;;;;;;;18.63;6.35;;;;;;;;;;5066769;28;20508;-85